Time;durP1;ratioP1;P1;durP2;ratioP2;P2;SDS_P1;SDS_P2;PMS_P1;PMS_P2;Temp;Humidity;BMP_temperature;BMP_pressure;BME280_temperature;BME280_humidity;BME280_pressure;Samples;Min_cycle;Max_cycle;Signal;HPM_P1;HPM_P2
2022/05/25 00:01:35;;;;;;;3.47;1.77;;;;;;;;;;5061790;28;20243;-75
2022/05/25 00:04:02;;;;;;;3.33;1.70;;;;;;;;;;5059683;28;20238;-75
2022/05/25 00:06:29;;;;;;;3.63;1.90;;;;;;;;;;5068731;28;20306;-75
2022/05/25 00:08:56;;;;;;;3.80;1.70;;;;;;;;;;5055282;28;20273;-75
2022/05/25 00:11:24;;;;;;;3.93;1.50;;;;;;;;;;5064044;28;20287;-75
2022/05/25 00:13:52;;;;;;;5.40;1.80;;;;;;;;;;5063152;28;20238;-75
2022/05/25 00:16:19;;;;;;;5.17;1.43;;;;;;;;;;5058276;28;20279;-75
2022/05/25 00:21:28;;;;;;;2.87;1.40;;;;;;;;;;5062454;28;20688;-75
2022/05/25 00:23:55;;;;;;;5.57;1.57;;;;;;;;;;5070046;28;20199;-75
2022/05/25 00:26:22;;;;;;;2.93;1.20;;;;;;;;;;5071241;28;20289;-74
2022/05/25 00:28:49;;;;;;;3.43;1.20;;;;;;;;;;5069392;28;20658;-74
2022/05/25 00:31:18;;;;;;;3.30;1.30;;;;;;;;;;5057654;28;20850;-74
2022/05/25 00:33:45;;;;;;;3.17;1.23;;;;;;;;;;5069207;28;20241;-75
2022/05/25 00:36:13;;;;;;;2.53;1.20;;;;;;;;;;5070662;28;20626;-75
2022/05/25 00:38:40;;;;;;;5.00;1.50;;;;;;;;;;5069266;28;20731;-75
2022/05/25 00:41:07;;;;;;;4.00;1.07;;;;;;;;;;5068166;28;20238;-75
2022/05/25 00:43:34;;;;;;;2.60;1.30;;;;;;;;;;5070642;28;20291;-75
2022/05/25 00:46:03;;;;;;;2.93;1.30;;;;;;;;;;5060099;28;20262;-74
2022/05/25 00:48:33;;;;;;;3.13;1.20;;;;;;;;;;5063885;28;20234;-75
2022/05/25 00:51:16;;;;;;;2.53;1.40;;;;;;;;;;5055263;28;20284;-75
2022/05/25 00:53:45;;;;;;;4.53;1.50;;;;;;;;;;5059205;28;20195;-75
2022/05/25 00:56:16;;;;;;;4.07;1.40;;;;;;;;;;5070259;28;20196;-75
2022/05/25 00:58:45;;;;;;;1.53;1.20;;;;;;;;;;5056147;28;20200;-75
2022/05/25 01:01:13;;;;;;;2.80;1.47;;;;;;;;;;5062663;28;20199;-74
2022/05/25 01:03:41;;;;;;;1.03;0.93;;;;;;;;;;5055805;28;20219;-75
2022/05/25 01:06:11;;;;;;;2.33;1.50;;;;;;;;;;5070907;28;20276;-75
2022/05/25 01:08:42;;;;;;;2.93;1.50;;;;;;;;;;5057059;28;20291;-75
2022/05/25 01:11:16;;;;;;;2.10;1.40;;;;;;;;;;5063570;28;20294;-75
2022/05/25 01:13:47;;;;;;;5.57;1.60;;;;;;;;;;5058310;28;20289;-75
2022/05/25 01:16:20;;;;;;;1.80;1.50;;;;;;;;;;5060966;28;20233;-75
2022/05/25 01:18:50;;;;;;;2.63;1.60;;;;;;;;;;5060443;28;20638;-75
2022/05/25 01:21:22;;;;;;;2.10;1.20;;;;;;;;;;5064318;28;20302;-75
2022/05/25 01:23:58;;;;;;;2.90;1.30;;;;;;;;;;5068032;28;20224;-74
2022/05/25 01:26:43;;;;;;;1.77;1.43;;;;;;;;;;5066134;28;20397;-74
2022/05/25 01:29:15;;;;;;;2.10;1.37;;;;;;;;;;5071648;28;20259;-74
2022/05/25 01:31:46;;;;;;;3.40;1.80;;;;;;;;;;5060679;28;20234;-74
2022/05/25 01:34:17;;;;;;;3.17;1.97;;;;;;;;;;5068423;28;20298;-75
2022/05/25 01:36:49;;;;;;;3.17;1.47;;;;;;;;;;5068991;28;20265;-75
2022/05/25 01:39:19;;;;;;;3.23;1.20;;;;;;;;;;5058044;28;20291;-75
2022/05/25 01:41:49;;;;;;;2.17;1.03;;;;;;;;;;5070145;28;20231;-75
2022/05/25 01:44:18;;;;;;;1.67;0.90;;;;;;;;;;5064202;28;20245;-75
2022/05/25 01:46:48;;;;;;;2.17;1.10;;;;;;;;;;5068380;28;20314;-75
2022/05/25 01:49:16;;;;;;;1.07;0.97;;;;;;;;;;5063536;28;20283;-75
2022/05/25 01:51:45;;;;;;;2.30;0.90;;;;;;;;;;5070846;28;20195;-75
2022/05/25 01:54:14;;;;;;;1.10;0.90;;;;;;;;;;5073867;28;20290;-75
2022/05/25 01:56:43;;;;;;;2.27;1.10;;;;;;;;;;5063002;28;20219;-75
2022/05/25 01:59:12;;;;;;;1.90;1.07;;;;;;;;;;5054946;28;20286;-75
2022/05/25 02:01:50;;;;;;;3.07;1.40;;;;;;;;;;5054768;28;20710;-74
2022/05/25 02:04:19;;;;;;;4.03;1.50;;;;;;;;;;5054869;28;20242;-74
2022/05/25 02:07:02;;;;;;;3.20;1.67;;;;;;;;;;5074469;28;20265;-75
2022/05/25 02:09:35;;;;;;;4.30;1.80;;;;;;;;;;5056643;28;20280;-75
2022/05/25 02:12:16;;;;;;;3.03;1.83;;;;;;;;;;5074754;28;20285;-75
2022/05/25 02:14:50;;;;;;;5.93;1.90;;;;;;;;;;5054030;28;20290;-74
2022/05/25 02:17:25;;;;;;;4.67;1.80;;;;;;;;;;5072511;28;20225;-75
2022/05/25 02:20:01;;;;;;;4.67;2.23;;;;;;;;;;5059765;28;20286;-75
2022/05/25 02:22:31;;;;;;;5.30;1.93;;;;;;;;;;5063524;28;20545;-75
2022/05/25 02:25:01;;;;;;;5.17;2.33;;;;;;;;;;5061830;28;20608;-75
2022/05/25 02:27:33;;;;;;;4.87;2.03;;;;;;;;;;5070898;28;20253;-75
2022/05/25 02:30:03;;;;;;;2.60;1.73;;;;;;;;;;5059044;28;20569;-75
2022/05/25 02:32:34;;;;;;;3.93;1.97;;;;;;;;;;5070530;28;20290;-74
2022/05/25 02:35:02;;;;;;;4.10;1.80;;;;;;;;;;5074236;28;20317;-75
2022/05/25 02:37:31;;;;;;;5.67;1.67;;;;;;;;;;5057479;28;20303;-75
2022/05/25 02:40:00;;;;;;;1.63;1.20;;;;;;;;;;5058238;28;20742;-74
2022/05/25 02:42:27;;;;;;;1.67;1.10;;;;;;;;;;5066698;28;20231;-74
2022/05/25 02:44:55;;;;;;;3.20;1.37;;;;;;;;;;5065610;28;20284;-75
2022/05/25 02:47:22;;;;;;;6.33;1.70;;;;;;;;;;5059061;28;20302;-75
2022/05/25 02:49:51;;;;;;;5.97;1.70;;;;;;;;;;5054954;28;20234;-74
2022/05/25 02:52:18;;;;;;;8.07;2.30;;;;;;;;;;5067425;28;20656;-74
2022/05/25 02:54:45;;;;;;;3.37;1.90;;;;;;;;;;5064070;28;20235;-75
2022/05/25 02:57:13;;;;;;;7.60;2.20;;;;;;;;;;5065394;28;20191;-75
2022/05/25 02:59:40;;;;;;;4.53;2.10;;;;;;;;;;5057663;28;20234;-75
2022/05/25 03:02:07;;;;;;;5.87;2.00;;;;;;;;;;5057202;28;20640;-74
2022/05/25 03:04:38;;;;;;;13.00;2.60;;;;;;;;;;5066522;28;20224;-74
2022/05/25 03:07:07;;;;;;;5.83;2.30;;;;;;;;;;5064869;28;20240;-74
2022/05/25 03:09:36;;;;;;;8.03;2.20;;;;;;;;;;5069139;28;20269;-74
2022/05/25 03:12:03;;;;;;;7.73;2.50;;;;;;;;;;5056555;28;20208;-74
2022/05/25 03:14:30;;;;;;;4.77;2.00;;;;;;;;;;5067424;28;20231;-74
2022/05/25 03:16:58;;;;;;;4.50;1.93;;;;;;;;;;5062499;28;20753;-74
2022/05/25 03:19:26;;;;;;;4.33;2.03;;;;;;;;;;5058559;28;20290;-74
2022/05/25 03:21:53;;;;;;;5.20;2.10;;;;;;;;;;5061551;28;20612;-75
2022/05/25 03:24:21;;;;;;;6.97;2.30;;;;;;;;;;5057469;28;20627;-74
2022/05/25 03:26:48;;;;;;;5.20;2.10;;;;;;;;;;5061376;28;20250;-74
2022/05/25 03:29:18;;;;;;;5.47;2.20;;;;;;;;;;5060403;28;20406;-75
2022/05/25 03:31:45;;;;;;;6.97;2.70;;;;;;;;;;5068295;28;20677;-75
2022/05/25 03:34:12;;;;;;;7.97;2.10;;;;;;;;;;5064875;28;20227;-74
2022/05/25 03:36:39;;;;;;;6.97;2.37;;;;;;;;;;5058013;28;20278;-74
2022/05/25 03:39:06;;;;;;;5.27;2.13;;;;;;;;;;5062992;28;20237;-74
2022/05/25 03:41:35;;;;;;;4.47;1.90;;;;;;;;;;5059199;28;20554;-74
2022/05/25 03:44:02;;;;;;;5.00;2.00;;;;;;;;;;5057755;28;20199;-75
2022/05/25 03:46:29;;;;;;;5.47;1.97;;;;;;;;;;5068068;28;20259;-74
2022/05/25 03:48:57;;;;;;;6.67;2.30;;;;;;;;;;5060864;28;20197;-75
2022/05/25 03:51:24;;;;;;;4.13;2.07;;;;;;;;;;5061244;28;20196;-74
2022/05/25 03:53:51;;;;;;;5.50;1.73;;;;;;;;;;5068727;28;20290;-75
2022/05/25 03:56:19;;;;;;;4.20;1.10;;;;;;;;;;5055867;28;20241;-74
2022/05/25 03:58:47;;;;;;;1.40;0.83;;;;;;;;;;5066792;28;20284;-75
2022/05/25 04:01:15;;;;;;;1.97;0.90;;;;;;;;;;5062805;28;20200;-75
2022/05/25 04:03:42;;;;;;;3.50;1.03;;;;;;;;;;5059332;28;20210;-74
2022/05/25 04:06:09;;;;;;;4.10;1.30;;;;;;;;;;5068380;28;20641;-75
2022/05/25 04:08:36;;;;;;;2.43;1.10;;;;;;;;;;5057390;28;20230;-74
2022/05/25 04:11:03;;;;;;;3.43;1.23;;;;;;;;;;5064368;28;20227;-75
2022/05/25 04:13:30;;;;;;;6.10;1.50;;;;;;;;;;5071425;28;20236;-74
2022/05/25 04:15:59;;;;;;;2.17;1.10;;;;;;;;;;5059125;28;20196;-74
2022/05/25 04:18:26;;;;;;;2.97;1.20;;;;;;;;;;5069356;28;20328;-74
2022/05/25 04:20:53;;;;;;;1.70;1.00;;;;;;;;;;5059432;28;20714;-74
2022/05/25 04:23:24;;;;;;;2.87;1.03;;;;;;;;;;5060250;28;20204;-74
2022/05/25 04:25:51;;;;;;;3.30;1.20;;;;;;;;;;5065451;28;20198;-74
2022/05/25 04:28:18;;;;;;;1.60;1.10;;;;;;;;;;5067444;28;20626;-76
2022/05/25 04:30:45;;;;;;;1.77;1.27;;;;;;;;;;5056493;28;20230;-75
2022/05/25 04:33:14;;;;;;;3.07;1.30;;;;;;;;;;5064087;28;20287;-74
2022/05/25 04:35:41;;;;;;;3.27;1.23;;;;;;;;;;5063785;28;20289;-74
2022/05/25 04:38:09;;;;;;;2.07;1.00;;;;;;;;;;5056620;28;20234;-74
2022/05/25 04:40:37;;;;;;;4.67;1.47;;;;;;;;;;5068036;28;20304;-74
2022/05/25 04:43:07;;;;;;;5.53;1.70;;;;;;;;;;5055308;28;20736;-75
2022/05/25 04:45:35;;;;;;;5.70;2.30;;;;;;;;;;5068572;28;20242;-73
2022/05/25 04:48:03;;;;;;;6.30;2.80;;;;;;;;;;5057230;28;20634;-75
2022/05/25 04:50:33;;;;;;;2.70;1.50;;;;;;;;;;5064441;28;20577;-75
2022/05/25 04:53:01;;;;;;;4.33;1.50;;;;;;;;;;5057736;28;20263;-75
2022/05/25 04:58:21;;;;;;;3.67;1.10;;;;;;;;;;5068743;28;20354;-75
2022/05/25 05:00:48;;;;;;;1.97;1.00;;;;;;;;;;5061549;28;21595;-76
2022/05/25 05:06:18;;;;;;;2.03;1.00;;;;;;;;;;5065251;28;20211;-75
2022/05/25 05:08:45;;;;;;;2.17;1.10;;;;;;;;;;5060525;28;20577;-76
2022/05/25 05:11:14;;;;;;;3.23;1.50;;;;;;;;;;5051909;28;20631;-75
2022/05/25 05:13:41;;;;;;;3.30;1.60;;;;;;;;;;5053241;28;20294;-74
2022/05/25 05:16:10;;;;;;;4.20;1.50;;;;;;;;;;5055026;28;20268;-76
2022/05/25 05:18:46;;;;;;;2.70;1.53;;;;;;;;;;5058735;28;20285;-76
2022/05/25 05:21:14;;;;;;;4.13;1.60;;;;;;;;;;5070661;28;20197;-75
2022/05/25 05:23:43;;;;;;;2.90;1.77;;;;;;;;;;5069972;28;20203;-76
2022/05/25 05:29:08;;;;;;;4.27;2.07;;;;;;;;;;5067382;28;20342;-76
2022/05/25 05:31:35;;;;;;;2.27;1.40;;;;;;;;;;5063585;28;20193;-74
2022/05/25 05:34:02;;;;;;;2.60;1.70;;;;;;;;;;5053393;28;20288;-73
2022/05/25 05:36:32;;;;;;;4.77;2.20;;;;;;;;;;5061711;28;20227;-73
2022/05/25 05:39:01;;;;;;;6.03;2.63;;;;;;;;;;5068735;28;20291;-73
2022/05/25 05:41:32;;;;;;;8.63;4.37;;;;;;;;;;5060726;28;20694;-75
2022/05/25 05:43:59;;;;;;;6.47;4.47;;;;;;;;;;5070176;28;20290;-75
2022/05/25 05:46:27;;;;;;;5.90;3.27;;;;;;;;;;5043861;28;20234;-75
2022/05/25 05:48:54;;;;;;;6.87;3.40;;;;;;;;;;5067853;28;20195;-76
2022/05/25 05:51:22;;;;;;;5.60;2.73;;;;;;;;;;5063381;28;22021;-76
2022/05/25 05:53:50;;;;;;;3.63;2.50;;;;;;;;;;5069910;28;20570;-75
2022/05/25 05:56:19;;;;;;;5.53;2.90;;;;;;;;;;5066542;28;20294;-76
2022/05/25 05:58:46;;;;;;;6.93;3.43;;;;;;;;;;5057671;28;20749;-75
2022/05/25 06:01:13;;;;;;;5.07;2.80;;;;;;;;;;5071030;28;21574;-75
2022/05/25 06:03:41;;;;;;;6.00;2.67;;;;;;;;;;5065304;28;20258;-75
2022/05/25 06:06:08;;;;;;;4.72;2.45;;;;;;;;;;5052337;28;20220;-76
2022/05/25 06:08:35;;;;;;;5.50;2.53;;;;;;;;;;5052357;28;20227;-75
2022/05/25 06:11:02;;;;;;;6.88;2.45;;;;;;;;;;5060972;28;20290;-76
2022/05/25 06:13:31;;;;;;;3.85;2.20;;;;;;;;;;5056904;28;20261;-76
2022/05/25 06:21:30;;;;;;;2.75;1.90;;;;;;;;;;5061729;28;20325;-76
2022/05/25 06:23:57;;;;;;;5.47;1.90;;;;;;;;;;5063745;28;20247;-75
2022/05/25 06:26:27;;;;;;;6.28;2.55;;;;;;;;;;5069949;28;20203;-76
2022/05/25 06:28:55;;;;;;;3.95;2.10;;;;;;;;;;5059633;28;20609;-76
2022/05/25 06:31:23;;;;;;;4.47;1.73;;;;;;;;;;5069516;28;20203;-76
2022/05/25 06:33:50;;;;;;;5.00;1.70;;;;;;;;;;5063460;28;20252;-77
2022/05/25 06:36:18;;;;;;;4.63;1.58;;;;;;;;;;5068888;28;20265;-76
2022/05/25 06:38:46;;;;;;;4.85;1.73;;;;;;;;;;5070685;28;20563;-77
2022/05/25 06:41:13;;;;;;;4.97;1.77;;;;;;;;;;5065937;28;20288;-76
2022/05/25 06:43:41;;;;;;;2.20;1.60;;;;;;;;;;5067019;28;20200;-76
2022/05/25 06:46:10;;;;;;;5.53;1.70;;;;;;;;;;5061924;28;20318;-76
2022/05/25 06:48:38;;;;;;;3.05;1.35;;;;;;;;;;5067801;28;20348;-76
2022/05/25 06:51:11;;;;;;;3.83;1.42;;;;;;;;;;5054619;28;20223;-76
2022/05/25 06:53:38;;;;;;;3.38;1.60;;;;;;;;;;5064118;28;20234;-76
2022/05/25 06:56:06;;;;;;;2.83;1.52;;;;;;;;;;5072854;28;20245;-75
2022/05/25 06:58:34;;;;;;;5.07;1.27;;;;;;;;;;5062031;28;20195;-76
2022/05/25 07:01:01;;;;;;;3.17;1.42;;;;;;;;;;5064608;28;20195;-79
2022/05/25 07:03:29;;;;;;;2.90;1.58;;;;;;;;;;5067861;28;20276;-77
2022/05/25 07:05:57;;;;;;;3.65;1.38;;;;;;;;;;5066178;28;20223;-78
2022/05/25 07:08:25;;;;;;;3.60;1.40;;;;;;;;;;5060559;28;20234;-78
2022/05/25 07:10:53;;;;;;;6.13;1.60;;;;;;;;;;5054447;28;20211;-76
2022/05/25 07:13:20;;;;;;;4.40;1.60;;;;;;;;;;5069102;28;20336;-76
2022/05/25 07:15:48;;;;;;;2.95;1.30;;;;;;;;;;5064043;28;20192;-76
2022/05/25 07:18:16;;;;;;;3.90;1.42;;;;;;;;;;5065444;28;20541;-77
2022/05/25 07:20:44;;;;;;;3.85;1.25;;;;;;;;;;5060170;28;20227;-76
2022/05/25 07:23:12;;;;;;;2.55;1.30;;;;;;;;;;5064511;28;20234;-76
2022/05/25 07:25:39;;;;;;;5.15;1.30;;;;;;;;;;5056408;28;20976;-76
2022/05/25 07:28:06;;;;;;;5.53;1.63;;;;;;;;;;5058227;28;20250;-76
2022/05/25 07:30:33;;;;;;;3.22;1.05;;;;;;;;;;5061538;28;20235;-75
2022/05/25 07:33:01;;;;;;;3.53;0.85;;;;;;;;;;5063467;28;20239;-75
2022/05/25 07:35:28;;;;;;;4.25;1.10;;;;;;;;;;5062950;28;20207;-75
2022/05/25 07:37:58;;;;;;;2.65;1.10;;;;;;;;;;5055246;28;20280;-75
2022/05/25 07:40:29;;;;;;;3.72;1.20;;;;;;;;;;5064315;28;20693;-76
2022/05/25 07:42:59;;;;;;;5.40;1.10;;;;;;;;;;5063875;28;20194;-77
2022/05/25 07:45:27;;;;;;;5.57;1.27;;;;;;;;;;5064243;28;20222;-77
2022/05/25 07:47:54;;;;;;;6.63;1.25;;;;;;;;;;5057508;28;20227;-77
2022/05/25 07:50:22;;;;;;;5.35;1.20;;;;;;;;;;5052347;28;20238;-78
2022/05/25 07:52:52;;;;;;;5.97;1.30;;;;;;;;;;5054812;28;20199;-79
2022/05/25 07:55:20;;;;;;;6.72;1.42;;;;;;;;;;5063978;28;20283;-77
2022/05/25 07:57:48;;;;;;;3.17;1.02;;;;;;;;;;5061386;28;20655;-76
2022/05/25 08:00:16;;;;;;;3.65;1.02;;;;;;;;;;5068829;28;20198;-77
2022/05/25 08:05:46;;;;;;;4.50;1.13;;;;;;;;;;5053655;28;20207;-77
2022/05/25 08:08:15;;;;;;;4.00;1.40;;;;;;;;;;5052254;28;20215;-76
2022/05/25 08:10:44;;;;;;;3.22;1.25;;;;;;;;;;5062031;28;20255;-76
2022/05/25 08:13:14;;;;;;;3.83;1.17;;;;;;;;;;5070434;28;20231;-77
2022/05/25 08:15:43;;;;;;;5.80;1.30;;;;;;;;;;5055356;28;20206;-76
2022/05/25 08:18:11;;;;;;;3.97;1.15;;;;;;;;;;5063466;28;20290;-75
2022/05/25 08:20:38;;;;;;;2.95;1.20;;;;;;;;;;5038569;28;20198;-77
2022/05/25 08:23:07;;;;;;;3.53;0.90;;;;;;;;;;5060803;28;20257;-76
2022/05/25 08:25:35;;;;;;;4.75;0.90;;;;;;;;;;5064803;28;20293;-75
2022/05/25 08:28:03;;;;;;;5.78;1.00;;;;;;;;;;5053485;28;20215;-75
2022/05/25 08:30:32;;;;;;;5.80;1.00;;;;;;;;;;5063181;28;20238;-75
2022/05/25 08:32:59;;;;;;;4.07;0.80;;;;;;;;;;5056762;28;20203;-76
2022/05/25 08:35:27;;;;;;;3.15;0.70;;;;;;;;;;5063783;28;20702;-75
2022/05/25 08:37:55;;;;;;;3.60;0.75;;;;;;;;;;5064540;28;20202;-76
2022/05/25 08:40:24;;;;;;;3.42;0.80;;;;;;;;;;5055081;28;20254;-76
2022/05/25 08:42:53;;;;;;;4.43;0.82;;;;;;;;;;5055572;28;20262;-77
2022/05/25 08:45:24;;;;;;;2.70;0.70;;;;;;;;;;5069137;28;20233;-75
2022/05/25 08:47:54;;;;;;;2.53;0.60;;;;;;;;;;5062920;28;20277;-76
2022/05/25 08:50:21;;;;;;;5.45;1.08;;;;;;;;;;5063108;28;20645;-75
2022/05/25 08:52:49;;;;;;;4.45;1.10;;;;;;;;;;5059335;28;20203;-75
2022/05/25 08:55:24;;;;;;;2.40;1.00;;;;;;;;;;5060984;28;20226;-75
2022/05/25 08:57:55;;;;;;;4.07;1.10;;;;;;;;;;5063122;28;20278;-75
2022/05/25 09:00:23;;;;;;;5.53;1.10;;;;;;;;;;5055751;28;20715;-75
2022/05/25 09:02:53;;;;;;;4.43;1.00;;;;;;;;;;5056296;28;20717;-76
2022/05/25 09:05:24;;;;;;;3.72;0.90;;;;;;;;;;5065989;28;20728;-77
2022/05/25 09:07:57;;;;;;;3.35;1.23;;;;;;;;;;5060812;28;20318;-76
2022/05/25 09:10:25;;;;;;;3.35;0.80;;;;;;;;;;5062761;28;20630;-77
2022/05/25 09:12:54;;;;;;;2.85;0.88;;;;;;;;;;5059932;28;20235;-77
2022/05/25 09:15:23;;;;;;;2.72;0.68;;;;;;;;;;5060335;28;20235;-77
2022/05/25 09:17:56;;;;;;;3.88;0.80;;;;;;;;;;5058685;28;20300;-76
2022/05/25 09:20:25;;;;;;;3.13;0.90;;;;;;;;;;5057018;28;20667;-78
2022/05/25 09:22:53;;;;;;;4.22;0.80;;;;;;;;;;5065063;28;20282;-76
2022/05/25 09:25:21;;;;;;;3.20;0.80;;;;;;;;;;5063650;28;20389;-77
2022/05/25 09:27:53;;;;;;;1.95;0.60;;;;;;;;;;5067575;28;20226;-76
2022/05/25 09:30:21;;;;;;;2.83;0.88;;;;;;;;;;5060576;28;20199;-76
2022/05/25 09:32:52;;;;;;;3.00;0.80;;;;;;;;;;5061018;28;20215;-76
2022/05/25 09:35:21;;;;;;;5.47;1.10;;;;;;;;;;5056922;28;20673;-76
2022/05/25 09:37:53;;;;;;;2.65;1.10;;;;;;;;;;5058374;28;20253;-76
2022/05/25 09:40:22;;;;;;;5.63;1.20;;;;;;;;;;5061282;28;20585;-75
2022/05/25 09:42:55;;;;;;;1.92;0.68;;;;;;;;;;5061777;28;20244;-75
2022/05/25 09:45:23;;;;;;;2.80;0.73;;;;;;;;;;5064996;28;20285;-75
2022/05/25 09:47:52;;;;;;;4.18;0.90;;;;;;;;;;5058473;28;20306;-75
2022/05/25 09:50:27;;;;;;;2.45;0.85;;;;;;;;;;5066021;28;20290;-76
2022/05/25 09:52:54;;;;;;;4.18;1.33;;;;;;;;;;5063889;28;20230;-75
2022/05/25 09:55:23;;;;;;;4.15;0.77;;;;;;;;;;5066497;28;20290;-76
2022/05/25 09:57:55;;;;;;;3.80;0.85;;;;;;;;;;5066897;28;20234;-76
2022/05/25 10:00:23;;;;;;;3.40;0.85;;;;;;;;;;5066720;28;20210;-76
2022/05/25 10:02:53;;;;;;;4.45;0.90;;;;;;;;;;5065374;28;20637;-76
2022/05/25 10:05:23;;;;;;;1.77;0.70;;;;;;;;;;5062260;28;20554;-76
2022/05/25 10:07:52;;;;;;;3.33;0.77;;;;;;;;;;5067050;28;20345;-75
2022/05/25 10:10:25;;;;;;;2.30;0.85;;;;;;;;;;5062634;28;20258;-76
2022/05/25 10:12:59;;;;;;;1.20;0.43;;;;;;;;;;5061659;28;20199;-76
2022/05/25 10:15:30;;;;;;;3.55;0.70;;;;;;;;;;5060405;28;20727;-77
2022/05/25 10:17:59;;;;;;;2.35;0.90;;;;;;;;;;5062236;28;20226;-77
2022/05/25 10:20:28;;;;;;;3.47;0.95;;;;;;;;;;5065746;28;20260;-76
2022/05/25 10:23:02;;;;;;;3.05;0.88;;;;;;;;;;5071312;28;20198;-75
2022/05/25 10:25:31;;;;;;;4.72;0.82;;;;;;;;;;5069704;28;20230;-75
2022/05/25 10:28:00;;;;;;;1.98;0.90;;;;;;;;;;5068318;28;20651;-75
2022/05/25 10:38:52;;;;;;;3.80;1.00;;;;;;;;;;5059452;28;20664;-76
2022/05/25 10:41:41;;;;;;;3.53;0.90;;;;;;;;;;5063900;28;20315;-76
2022/05/25 10:44:12;;;;;;;2.40;0.95;;;;;;;;;;5062395;28;20265;-78
2022/05/25 10:46:41;;;;;;;4.78;1.02;;;;;;;;;;5060045;28;20259;-76
2022/05/25 10:49:15;;;;;;;2.28;0.93;;;;;;;;;;5059396;28;20258;-76
2022/05/25 10:51:44;;;;;;;2.10;0.90;;;;;;;;;;5056639;28;20238;-75
2022/05/25 10:57:01;;;;;;;3.22;0.85;;;;;;;;;;5061567;28;20269;-76
2022/05/25 10:59:30;;;;;;;3.50;0.93;;;;;;;;;;5054272;28;20239;-76
2022/05/25 11:02:17;;;;;;;4.47;0.90;;;;;;;;;;5055498;28;20571;-76
2022/05/25 11:05:00;;;;;;;2.38;0.68;;;;;;;;;;5065470;28;20231;-76
2022/05/25 11:07:30;;;;;;;3.65;0.80;;;;;;;;;;5058797;28;20211;-75
2022/05/25 11:10:24;;;;;;;3.60;0.93;;;;;;;;;;5061088;28;20246;-75
2022/05/25 11:12:59;;;;;;;4.78;1.23;;;;;;;;;;5025784;28;20329;-75
2022/05/25 11:15:30;;;;;;;3.95;0.88;;;;;;;;;;5069268;28;20237;-75
2022/05/25 11:18:04;;;;;;;3.33;1.00;;;;;;;;;;5069563;28;20195;-76
2022/05/25 11:20:37;;;;;;;3.28;0.80;;;;;;;;;;5050720;28;20719;-76
2022/05/25 11:23:16;;;;;;;2.58;0.90;;;;;;;;;;5054333;28;20204;-76
2022/05/25 11:25:54;;;;;;;2.78;0.90;;;;;;;;;;5055131;28;20286;-76
2022/05/25 11:28:26;;;;;;;2.40;0.70;;;;;;;;;;5067136;28;20328;-75
2022/05/25 11:31:00;;;;;;;3.50;1.17;;;;;;;;;;5060954;28;20291;-76
2022/05/25 11:33:32;;;;;;;4.22;0.80;;;;;;;;;;5065777;28;20205;-75
2022/05/25 11:36:07;;;;;;;5.60;1.00;;;;;;;;;;5065989;28;20678;-75
2022/05/25 11:38:48;;;;;;;2.92;0.88;;;;;;;;;;5057672;28;20322;-75
2022/05/25 11:41:26;;;;;;;4.55;1.30;;;;;;;;;;5059396;28;20699;-75
2022/05/25 11:44:07;;;;;;;4.32;0.90;;;;;;;;;;5065072;28;20202;-75
2022/05/25 11:46:38;;;;;;;3.80;0.75;;;;;;;;;;5063257;28;20242;-76
2022/05/25 11:49:20;;;;;;;3.90;0.85;;;;;;;;;;5054304;28;20247;-76
2022/05/25 11:51:55;;;;;;;3.38;1.00;;;;;;;;;;5061733;28;20199;-76
2022/05/25 11:54:30;;;;;;;5.10;1.00;;;;;;;;;;5058978;28;20203;-76
2022/05/25 11:57:03;;;;;;;3.50;0.98;;;;;;;;;;5064628;28;20198;-76
2022/05/25 11:59:45;;;;;;;3.28;0.88;;;;;;;;;;5062886;28;20250;-76
2022/05/25 12:02:20;;;;;;;2.95;1.13;;;;;;;;;;5056282;28;20200;-76
2022/05/25 12:04:55;;;;;;;2.78;0.90;;;;;;;;;;5064668;28;20235;-76
2022/05/25 12:07:39;;;;;;;3.72;0.85;;;;;;;;;;5056729;28;20238;-76
2022/05/25 12:10:22;;;;;;;2.92;0.80;;;;;;;;;;5060470;28;20257;-75
2022/05/25 12:12:50;;;;;;;4.10;0.85;;;;;;;;;;5057241;28;20281;-75
2022/05/25 12:15:21;;;;;;;4.65;1.00;;;;;;;;;;5066664;28;20658;-76
2022/05/25 12:17:58;;;;;;;3.50;0.85;;;;;;;;;;5065668;28;20214;-76
2022/05/25 12:20:28;;;;;;;2.97;0.73;;;;;;;;;;5055610;28;20230;-76
2022/05/25 12:23:00;;;;;;;2.78;0.80;;;;;;;;;;5060032;28;20226;-76
2022/05/25 12:25:27;;;;;;;3.83;0.75;;;;;;;;;;5063150;28;20671;-76
2022/05/25 12:27:57;;;;;;;4.13;0.93;;;;;;;;;;5059312;28;20679;-76
2022/05/25 12:30:29;;;;;;;5.55;0.80;;;;;;;;;;5060545;28;20222;-76
2022/05/25 12:32:56;;;;;;;4.30;1.10;;;;;;;;;;5056106;28;20199;-76
2022/05/25 12:35:24;;;;;;;3.65;1.10;;;;;;;;;;5062860;28;20199;-76
2022/05/25 12:37:53;;;;;;;3.72;0.70;;;;;;;;;;5060762;28;20320;-76
2022/05/25 12:40:35;;;;;;;7.20;0.80;;;;;;;;;;5060032;28;20199;-76
2022/05/25 12:43:03;;;;;;;3.67;0.95;;;;;;;;;;5058816;28;20195;-76
2022/05/25 12:48:33;;;;;;;4.90;0.90;;;;;;;;;;5060065;28;20214;-76
2022/05/25 12:51:05;;;;;;;5.30;0.90;;;;;;;;;;5058648;28;20195;-75
2022/05/25 12:53:36;;;;;;;5.35;1.10;;;;;;;;;;5065134;28;20203;-76
2022/05/25 12:56:05;;;;;;;2.92;0.98;;;;;;;;;;5060248;28;20198;-76
2022/05/25 12:58:39;;;;;;;2.53;1.10;;;;;;;;;;5065789;28;20203;-76
2022/05/25 13:01:08;;;;;;;2.78;1.10;;;;;;;;;;5056091;28;20249;-79
2022/05/25 13:04:08;;;;;;;4.03;0.93;;;;;;;;;;5060922;28;20234;-76
2022/05/25 13:06:54;;;;;;;3.65;0.90;;;;;;;;;;5059794;28;20239;-75
2022/05/25 13:09:34;;;;;;;8.98;1.52;;;;;;;;;;5060574;28;20254;-75
2022/05/25 13:12:33;;;;;;;6.75;1.20;;;;;;;;;;5057037;28;20293;-75
2022/05/25 13:15:01;;;;;;;4.93;1.25;;;;;;;;;;5061869;28;20196;-75
2022/05/25 13:17:42;;;;;;;4.75;0.98;;;;;;;;;;5057993;28;20722;-75
2022/05/25 13:20:14;;;;;;;3.85;0.80;;;;;;;;;;5057685;28;20595;-76
2022/05/25 13:22:41;;;;;;;3.85;0.82;;;;;;;;;;5064144;28;20768;-75
2022/05/25 13:25:17;;;;;;;3.28;0.77;;;;;;;;;;5066719;28;20239;-75
2022/05/25 13:28:19;;;;;;;4.45;1.00;;;;;;;;;;5064564;28;20253;-75
2022/05/25 13:30:52;;;;;;;4.30;0.95;;;;;;;;;;4977988;28;20213;-75
2022/05/25 13:33:24;;;;;;;4.43;1.10;;;;;;;;;;4976855;28;20280;-75
2022/05/25 13:35:54;;;;;;;4.95;1.60;;;;;;;;;;4976249;28;20201;-75
2022/05/25 13:38:25;;;;;;;2.83;1.15;;;;;;;;;;4978832;28;20213;-75
2022/05/25 13:40:54;;;;;;;4.68;1.08;;;;;;;;;;4979455;28;20226;-74
2022/05/25 13:43:25;;;;;;;3.28;1.10;;;;;;;;;;4984288;28;20212;-75
2022/05/25 13:45:53;;;;;;;3.65;1.02;;;;;;;;;;4978764;28;20229;-74
2022/05/25 13:48:23;;;;;;;3.67;0.85;;;;;;;;;;4972860;28;20290;-75
2022/05/25 13:50:57;;;;;;;1.75;0.85;;;;;;;;;;4981455;28;20221;-75
2022/05/25 13:53:31;;;;;;;4.82;1.13;;;;;;;;;;4983344;28;20230;-75
2022/05/25 13:56:01;;;;;;;5.13;1.10;;;;;;;;;;4974028;28;20200;-75
2022/05/25 13:58:29;;;;;;;4.28;1.05;;;;;;;;;;4983360;28;20301;-76
2022/05/25 14:00:57;;;;;;;7.63;1.17;;;;;;;;;;4990840;28;20743;-75
2022/05/25 14:03:26;;;;;;;6.18;1.20;;;;;;;;;;5061349;28;20257;-75
2022/05/25 14:05:55;;;;;;;4.15;1.20;;;;;;;;;;5057490;28;20290;-75
2022/05/25 14:08:24;;;;;;;4.68;1.00;;;;;;;;;;5061640;28;20662;-76
2022/05/25 14:10:54;;;;;;;3.97;1.00;;;;;;;;;;5060743;28;20774;-75
2022/05/25 14:13:23;;;;;;;3.30;0.93;;;;;;;;;;5056516;28;20195;-74
2022/05/25 14:15:59;;;;;;;5.18;0.90;;;;;;;;;;5058072;28;20231;-75
2022/05/25 14:18:27;;;;;;;6.78;1.25;;;;;;;;;;5054293;28;20246;-74
2022/05/25 14:20:54;;;;;;;5.00;0.77;;;;;;;;;;5062361;28;20549;-75
2022/05/25 14:23:25;;;;;;;8.85;1.17;;;;;;;;;;5056925;28;20289;-77
2022/05/25 14:25:57;;;;;;;8.60;1.17;;;;;;;;;;5059242;28;20195;-76
2022/05/25 14:28:27;;;;;;;4.40;0.93;;;;;;;;;;5060569;28;20205;-75
2022/05/25 14:30:56;;;;;;;3.85;1.00;;;;;;;;;;5064133;28;20210;-75
2022/05/25 14:33:26;;;;;;;4.40;0.98;;;;;;;;;;5057441;28;20207;-76
2022/05/25 14:35:55;;;;;;;3.35;0.80;;;;;;;;;;5060385;28;20280;-76
2022/05/25 14:38:22;;;;;;;2.85;0.85;;;;;;;;;;5060366;28;20196;-75
2022/05/25 14:40:51;;;;;;;4.20;0.80;;;;;;;;;;5060787;28;20732;-75
2022/05/25 14:43:35;;;;;;;3.05;1.45;;;;;;;;;;5062876;28;20326;-75
2022/05/25 14:46:15;;;;;;;4.13;1.02;;;;;;;;;;5057368;28;20237;-75
2022/05/25 14:48:45;;;;;;;5.40;1.00;;;;;;;;;;5070003;28;20405;-76
2022/05/25 14:51:12;;;;;;;3.08;0.70;;;;;;;;;;5057691;28;20227;-74
2022/05/25 14:53:39;;;;;;;4.13;0.80;;;;;;;;;;5069773;28;20290;-75
2022/05/25 14:56:09;;;;;;;1.52;0.65;;;;;;;;;;5067381;28;20286;-75
2022/05/25 14:58:39;;;;;;;4.15;1.00;;;;;;;;;;5068680;28;20206;-75
2022/05/25 15:01:12;;;;;;;4.32;1.05;;;;;;;;;;5073838;28;20279;-75
2022/05/25 15:03:41;;;;;;;4.15;1.02;;;;;;;;;;5068597;28;20226;-75
2022/05/25 15:06:11;;;;;;;3.55;0.73;;;;;;;;;;5067420;28;20307;-75
2022/05/25 15:08:40;;;;;;;3.08;0.95;;;;;;;;;;5070065;28;21037;-75
2022/05/25 15:11:24;;;;;;;2.85;0.82;;;;;;;;;;5066689;28;20245;-75
2022/05/25 15:19:36;;;;;;;5.13;1.08;;;;;;;;;;5058397;28;20244;-74
2022/05/25 15:22:07;;;;;;;1.88;0.70;;;;;;;;;;5057831;28;20290;-75
2022/05/25 15:24:34;;;;;;;4.10;1.17;;;;;;;;;;5062558;28;20215;-74
2022/05/25 15:27:04;;;;;;;4.38;0.95;;;;;;;;;;5063015;28;20282;-74
2022/05/25 15:29:32;;;;;;;4.32;1.50;;;;;;;;;;5072934;28;20203;-74
2022/05/25 15:32:00;;;;;;;3.97;0.90;;;;;;;;;;5075817;28;20191;-74
2022/05/25 15:34:27;;;;;;;3.38;1.10;;;;;;;;;;5061634;28;20298;-74
2022/05/25 15:36:55;;;;;;;3.70;0.93;;;;;;;;;;5072427;28;20225;-74
2022/05/25 15:39:24;;;;;;;3.75;0.90;;;;;;;;;;5069015;28;20586;-75
2022/05/25 15:41:51;;;;;;;4.78;0.90;;;;;;;;;;5073416;28;20222;-75